Time;durP1;ratioP1;P1;durP2;ratioP2;P2;SDS_P1;SDS_P2;PMS_P1;PMS_P2;Temp;Humidity;BMP_temperature;BMP_pressure;BME280_temperature;BME280_humidity;BME280_pressure;Samples;Min_cycle;Max_cycle;Signal;HPM_P1;HPM_P2
2023/05/12 00:02:18;;;;;;;6.30;4.83;;;16.00;99.90;;;;;;5098209;28;20486;-83
2023/05/12 00:04:45;;;;;;;7.00;6.40;;;16.00;99.90;;;;;;5098061;28;20476;-83
2023/05/12 00:07:12;;;;;;;7.57;5.93;;;15.90;99.90;;;;;;5098863;28;20539;-83
2023/05/12 00:09:40;;;;;;;7.13;6.00;;;15.90;99.90;;;;;;5108474;28;20535;-83
2023/05/12 00:12:09;;;;;;;6.93;6.23;;;16.00;99.90;;;;;;5111996;28;20456;-83
2023/05/12 00:14:36;;;;;;;11.70;5.97;;;15.90;99.90;;;;;;5114329;28;20472;-83
2023/05/12 00:17:03;;;;;;;11.23;5.93;;;15.80;99.90;;;;;;5111928;28;20436;-83
2023/05/12 00:19:31;;;;;;;6.77;5.80;;;15.70;99.90;;;;;;5108824;28;20973;-82
2023/05/12 00:21:58;;;;;;;9.23;6.40;;;15.70;99.90;;;;;;5100509;28;20479;-83
2023/05/12 00:24:24;;;;;;;5.83;5.43;;;15.90;1.00;;;;;;5097554;28;20503;-83
2023/05/12 00:26:51;;;;;;;6.20;5.60;;;15.70;99.90;;;;;;5098098;28;20450;-83
2023/05/12 00:29:19;;;;;;;15.53;6.90;;;15.60;99.90;;;;;;5097922;28;20528;-83
2023/05/12 00:31:46;;;;;;;6.90;5.60;;;15.50;99.90;;;;;;5103584;28;20535;-83
2023/05/12 00:34:13;;;;;;;7.27;6.57;;;15.50;1.00;;;;;;5100839;28;20543;-83
2023/05/12 00:36:40;;;;;;;6.20;5.70;;;15.40;99.90;;;;;;5101274;28;20450;-83
2023/05/12 00:39:07;;;;;;;9.63;5.27;;;15.40;99.90;;;;;;5103542;28;20450;-82
2023/05/12 00:41:33;;;;;;;8.07;5.83;;;15.30;99.90;;;;;;5117220;28;21094;-82
2023/05/12 00:44:00;;;;;;;6.73;5.73;;;15.30;99.90;;;;;;5119421;28;20431;-82
2023/05/12 00:46:29;;;;;;;8.43;5.60;;;15.20;99.90;;;;;;5114038;28;20495;-83
2023/05/12 00:48:55;;;;;;;9.90;6.07;;;15.20;99.90;;;;;;5102355;28;20973;-83
2023/05/12 00:51:23;;;;;;;10.43;7.07;;;14.90;1.00;;;;;;5101114;28;20447;-83
2023/05/12 00:53:50;;;;;;;6.50;5.90;;;15.10;99.90;;;;;;5100579;28;20448;-83
2023/05/12 00:56:18;;;;;;;10.57;5.80;;;15.10;99.90;;;;;;5100380;28;21006;-83
2023/05/12 00:58:45;;;;;;;6.90;5.50;;;15.10;99.90;;;;;;5100301;28;20452;-83
2023/05/12 01:01:12;;;;;;;9.13;6.20;;;15.20;99.90;;;;;;5100671;28;20486;-83
2023/05/12 01:03:40;;;;;;;9.93;6.40;;;15.10;99.90;;;;;;5101228;28;20817;-83
2023/05/12 01:06:12;;;;;;;6.23;5.67;;;15.00;99.90;;;;;;5102799;28;20569;-83
2023/05/12 01:08:41;;;;;;;6.03;5.57;;;15.00;99.90;;;;;;5104402;28;20430;-83
2023/05/12 01:11:08;;;;;;;6.70;5.90;;;14.90;99.90;;;;;;5101904;28;20444;-83
2023/05/12 01:13:34;;;;;;;7.20;5.80;;;15.00;99.90;;;;;;5108879;28;20444;-83
2023/05/12 01:16:03;;;;;;;6.40;5.80;;;14.90;99.90;;;;;;5117546;28;20464;-83
2023/05/12 01:18:33;;;;;;;6.23;5.83;;;14.90;99.90;;;;;;5109057;28;20440;-83
2023/05/12 01:21:02;;;;;;;7.30;5.27;;;14.90;99.90;;;;;;5101167;28;20480;-83
2023/05/12 01:23:35;;;;;;;12.13;5.67;;;14.90;99.90;;;;;;5105648;28;20455;-82
2023/05/12 01:26:06;;;;;;;6.20;5.30;;;14.90;99.90;;;;;;5110950;28;20529;-82
2023/05/12 01:28:34;;;;;;;6.13;5.57;;;14.80;99.90;;;;;;5110599;28;20497;-83
2023/05/12 01:31:01;;;;;;;8.83;5.90;;;14.90;99.90;;;;;;5101183;28;20440;-83
2023/05/12 01:33:28;;;;;;;8.37;6.30;;;14.80;99.90;;;;;;5101757;28;20449;-83
2023/05/12 01:35:55;;;;;;;7.60;6.10;;;14.70;1.00;;;;;;5102687;28;20443;-82
2023/05/12 01:38:22;;;;;;;10.73;5.87;;;14.70;99.90;;;;;;5103721;28;20476;-83
2023/05/12 01:40:49;;;;;;;7.87;5.63;;;14.70;99.90;;;;;;5106450;28;20476;-82
2023/05/12 01:43:17;;;;;;;7.07;6.37;;;14.70;99.90;;;;;;5106151;28;20441;-82
2023/05/12 01:45:44;;;;;;;6.17;5.57;;;14.70;99.90;;;;;;5103620;28;20475;-82
2023/05/12 01:48:11;;;;;;;7.53;5.53;;;14.80;99.90;;;;;;5100037;28;20440;-82
2023/05/12 01:50:38;;;;;;;6.47;5.87;;;14.70;99.90;;;;;;5099684;28;20985;-82
2023/05/12 01:53:04;;;;;;;9.53;5.60;;;14.70;99.90;;;;;;5099937;28;20445;-82
2023/05/12 01:55:31;;;;;;;5.90;5.30;;;14.60;99.90;;;;;;5099670;28;20559;-82
2023/05/12 01:57:58;;;;;;;6.53;5.77;;;14.60;99.90;;;;;;5111075;28;20448;-81
2023/05/12 02:00:26;;;;;;;8.43;5.60;;;14.50;99.90;;;;;;5115250;28;20478;-81
2023/05/12 02:02:53;;;;;;;9.70;6.07;;;14.50;99.90;;;;;;5102904;28;20856;-83
2023/05/12 02:05:21;;;;;;;8.20;6.40;;;14.40;99.90;;;;;;5099639;28;20468;-83
2023/05/12 02:07:48;;;;;;;6.77;6.13;;;14.40;99.90;;;;;;5100020;28;20448;-83
2023/05/12 02:10:14;;;;;;;7.00;6.20;;;14.40;99.90;;;;;;5100437;28;20445;-83
2023/05/12 02:12:41;;;;;;;6.33;5.73;;;14.30;99.90;;;;;;5103515;28;20480;-82
2023/05/12 02:15:09;;;;;;;6.27;5.40;;;14.30;99.90;;;;;;5103957;28;20472;-84
2023/05/12 02:17:37;;;;;;;8.13;5.40;;;14.20;99.90;;;;;;5101968;28;20448;-83
2023/05/12 02:20:05;;;;;;;6.33;5.77;;;14.20;99.90;;;;;;5103203;28;20444;-83
2023/05/12 02:22:31;;;;;;;8.53;6.27;;;14.20;99.90;;;;;;5102086;28;20479;-83
2023/05/12 02:24:58;;;;;;;9.93;6.20;;;14.20;99.90;;;;;;5101444;28;20470;-83
2023/05/12 02:27:25;;;;;;;7.10;5.40;;;14.10;99.90;;;;;;5101375;28;20543;-83
2023/05/12 02:29:52;;;;;;;11.43;5.70;;;14.10;99.90;;;;;;5101719;28;20535;-82
2023/05/12 02:32:20;;;;;;;8.83;5.63;;;14.10;99.90;;;;;;5102520;28;20445;-82
2023/05/12 02:34:49;;;;;;;6.23;5.43;;;14.00;99.90;;;;;;5104703;28;20472;-82
2023/05/12 02:37:15;;;;;;;8.60;6.33;;;14.00;99.90;;;;;;5117386;28;20515;-83
2023/05/12 02:39:42;;;;;;;12.37;6.40;;;14.00;99.90;;;;;;5114269;28;20517;-83
2023/05/12 02:42:09;;;;;;;13.20;6.70;;;13.90;99.90;;;;;;5105107;28;20559;-84
2023/05/12 02:44:36;;;;;;;9.00;5.50;;;13.90;99.90;;;;;;5102298;28;20830;-82
2023/05/12 02:47:03;;;;;;;6.30;5.70;;;13.90;99.90;;;;;;5102302;28;20497;-82
2023/05/12 02:49:31;;;;;;;8.50;5.67;;;13.80;99.90;;;;;;5105306;28;20579;-82
2023/05/12 02:51:59;;;;;;;8.30;6.07;;;13.80;99.90;;;;;;5105090;28;20448;-82
2023/05/12 02:54:26;;;;;;;6.47;5.70;;;13.20;1.00;;;;;;5106424;28;20444;-82
2023/05/12 02:56:53;;;;;;;7.63;6.30;;;13.70;99.90;;;;;;5101080;28;20815;-83
2023/05/12 02:59:20;;;;;;;6.17;5.67;;;13.60;99.90;;;;;;5099798;28;20539;-82
2023/05/12 03:01:47;;;;;;;9.50;7.50;;;13.60;99.90;;;;;;5102129;28;20476;-84
2023/05/12 03:04:13;;;;;;;6.70;6.03;;;13.40;1.00;;;;;;5099706;28;20961;-83
2023/05/12 03:06:40;;;;;;;8.30;6.00;;;13.40;99.90;;;;;;5098077;28;20452;-83
2023/05/12 03:09:09;;;;;;;11.80;6.23;;;13.40;99.90;;;;;;5103578;28;20474;-83
2023/05/12 03:11:35;;;;;;;5.97;5.30;;;13.40;99.90;;;;;;5108598;28;20433;-83
2023/05/12 03:14:02;;;;;;;6.70;6.10;;;13.40;99.90;;;;;;5098289;28;20448;-83
2023/05/12 03:16:29;;;;;;;9.73;6.53;;;13.40;99.90;;;;;;5125553;22;20499;-86
2023/05/12 03:18:56;;;;;;;7.67;5.73;;;13.30;99.90;;;;;;5106569;28;20460;-86
2023/05/12 03:21:23;;;;;;;8.73;5.87;;;13.30;99.90;;;;;;5104621;28;20476;-87
2023/05/12 03:23:51;;;;;;;9.07;6.60;;;13.20;99.90;;;;;;5106640;28;20510;-86
2023/05/12 03:26:19;;;;;;;9.53;6.57;;;13.10;99.90;;;;;;5102733;28;20479;-87
2023/05/12 03:28:46;;;;;;;7.13;5.43;;;13.10;99.90;;;;;;5102761;28;20452;-86
2023/05/12 03:31:13;;;;;;;10.90;6.70;;;13.20;1.00;;;;;;5102979;28;20868;-86
2023/05/12 03:33:40;;;;;;;8.13;5.43;;;13.10;99.90;;;;;;5102544;28;20543;-85
2023/05/12 03:36:07;;;;;;;6.70;6.10;;;13.10;99.90;;;;;;5102448;28;20502;-85
2023/05/12 03:38:35;;;;;;;9.00;6.40;;;13.10;1.00;;;;;;5102173;28;20452;-86
2023/05/12 03:41:05;;;;;;;9.67;6.30;;;13.00;1.00;;;;;;5103360;28;20452;-84
2023/05/12 03:43:34;;;;;;;8.23;5.73;;;13.00;99.90;;;;;;5102435;28;20514;-87
2023/05/12 03:46:02;;;;;;;7.70;6.50;;;12.90;99.90;;;;;;5102074;28;20482;-86
2023/05/12 03:48:29;;;;;;;11.60;6.20;;;12.90;99.90;;;;;;5101460;28;20474;-86
2023/05/12 03:50:56;;;;;;;7.67;6.87;;;12.60;1.00;;;;;;5101535;28;20532;-87
2023/05/12 03:53:23;;;;;;;10.00;6.10;;;12.90;99.90;;;;;;5101704;28;20440;-86
2023/05/12 03:55:50;;;;;;;8.73;5.97;;;12.90;99.90;;;;;;5112784;28;20487;-86
2023/05/12 03:58:17;;;;;;;7.93;5.90;;;12.80;99.90;;;;;;5115652;28;20456;-85
2023/05/12 04:00:51;;;;;;;10.00;6.00;;;12.80;99.90;;;;;;5109904;28;20518;-85
2023/05/12 04:03:17;;;;;;;7.10;6.20;;;13.00;1.00;;;;;;5105564;28;20461;-86
2023/05/12 04:05:45;;;;;;;6.10;5.60;;;12.80;99.90;;;;;;5103505;28;20468;-86
2023/05/12 04:08:12;;;;;;;6.63;5.93;;;12.70;99.90;;;;;;5106137;28;20452;-86
2023/05/12 04:10:39;;;;;;;6.73;6.03;;;12.80;99.90;;;;;;5109549;28;20451;-86
2023/05/12 04:13:07;;;;;;;7.13;6.00;;;12.80;99.90;;;;;;5117733;28;20414;-84
2023/05/12 04:15:34;;;;;;;10.33;5.87;;;12.70;99.90;;;;;;5119729;28;20468;-85
2023/05/12 04:18:03;;;;;;;9.37;7.23;;;12.70;99.90;;;;;;5121577;28;20463;-85
2023/05/12 04:20:30;;;;;;;6.93;6.30;;;12.80;99.90;;;;;;5117391;28;20475;-85
2023/05/12 04:22:57;;;;;;;7.70;7.00;;;12.80;99.90;;;;;;5117390;28;20500;-83
2023/05/12 04:25:23;;;;;;;14.10;7.40;;;12.80;99.90;;;;;;5115962;28;20495;-84
2023/05/12 04:27:50;;;;;;;9.83;6.73;;;12.80;99.90;;;;;;5112863;28;20516;-86
2023/05/12 04:30:17;;;;;;;6.70;6.00;;;12.80;99.90;;;;;;5109216;28;20845;-85
2023/05/12 04:32:44;;;;;;;10.47;6.70;;;12.80;99.90;;;;;;5106373;28;20441;-86
2023/05/12 04:35:12;;;;;;;7.93;6.90;;;12.80;99.90;;;;;;5105313;28;20472;-86
2023/05/12 04:37:39;;;;;;;8.37;6.53;;;12.80;99.90;;;;;;5110736;28;20432;-85
2023/05/12 04:40:07;;;;;;;8.67;7.60;;;12.80;1.00;;;;;;5120574;28;20440;-85
2023/05/12 04:42:34;;;;;;;9.97;6.00;;;12.80;99.90;;;;;;5107594;28;20484;-87
2023/05/12 04:45:01;;;;;;;7.47;6.60;;;12.90;99.90;;;;;;5106949;28;20472;-85
2023/05/12 04:47:28;;;;;;;6.77;5.97;;;12.80;99.90;;;;;;5103452;28;20954;-85
2023/05/12 04:49:55;;;;;;;7.47;6.77;;;12.90;99.90;;;;;;5108496;28;20452;-85
2023/05/12 04:52:23;;;;;;;11.57;7.00;;;12.80;99.90;;;;;;5106152;28;20472;-86
2023/05/12 04:54:50;;;;;;;15.03;7.73;;;12.90;99.90;;;;;;5105019;28;20472;-85
2023/05/12 04:57:17;;;;;;;10.67;8.13;;;12.90;99.90;;;;;;5106219;28;20539;-85
2023/05/12 04:59:44;;;;;;;12.47;7.27;;;12.90;99.90;;;;;;5106218;28;20444;-85
2023/05/12 05:02:11;;;;;;;10.17;6.57;;;13.10;99.90;;;;;;5109017;28;20535;-85
2023/05/12 05:04:38;;;;;;;11.57;7.07;;;13.50;1.00;;;;;;5108154;28;20479;-85
2023/05/12 05:07:05;;;;;;;8.50;6.90;;;13.30;99.90;;;;;;5109652;28;20830;-85
2023/05/12 05:09:34;;;;;;;7.73;5.97;;;13.50;99.90;;;;;;5110151;28;20969;-85
2023/05/12 05:12:01;;;;;;;12.90;6.70;;;13.60;99.90;;;;;;5111170;28;20479;-84
2023/05/12 05:14:28;;;;;;;7.10;6.40;;;13.70;99.90;;;;;;5110284;28;20445;-85
2023/05/12 05:16:54;;;;;;;14.43;6.73;;;13.90;1.00;;;;;;5108520;28;20456;-86
2023/05/12 05:19:21;;;;;;;9.23;6.17;;;13.90;99.90;;;;;;5105255;28;20487;-86
2023/05/12 05:21:48;;;;;;;13.10;6.63;;;13.90;99.90;;;;;;5106856;28;20491;-85
2023/05/12 05:24:15;;;;;;;7.90;5.63;;;14.00;99.90;;;;;;5105620;28;20482;-86
2023/05/12 05:26:44;;;;;;;11.87;6.50;;;14.10;99.90;;;;;;5102601;28;20447;-84
2023/05/12 05:29:11;;;;;;;7.80;6.40;;;14.20;99.90;;;;;;5103852;28;20445;-84
2023/05/12 05:31:38;;;;;;;9.23;7.30;;;14.20;99.90;;;;;;5103476;28;20463;-85
2023/05/12 05:34:05;;;;;;;7.63;5.93;;;14.20;99.90;;;;;;5103705;28;20449;-85
2023/05/12 05:36:32;;;;;;;9.03;6.93;;;14.30;99.90;;;;;;5117668;28;20444;-85
2023/05/12 05:38:59;;;;;;;6.73;5.97;;;14.10;99.90;;;;;;5120953;28;20457;-85
2023/05/12 05:41:26;;;;;;;7.83;6.53;;;14.30;99.90;;;;;;5120637;27;20431;-85
2023/05/12 05:43:54;;;;;;;9.00;6.57;;;14.30;99.90;;;;;;5120891;28;20484;-86
2023/05/12 05:46:21;;;;;;;9.33;6.50;;;14.40;99.90;;;;;;5120612;28;20467;-86
2023/05/12 05:48:48;;;;;;;10.20;6.47;;;14.40;99.90;;;;;;5120912;28;20452;-84
2023/05/12 05:51:15;;;;;;;9.27;6.70;;;14.50;99.90;;;;;;5112806;28;20480;-84
2023/05/12 05:53:42;;;;;;;8.10;6.60;;;14.70;99.90;;;;;;5105754;28;20476;-84
2023/05/12 05:56:09;;;;;;;8.80;6.53;;;14.70;99.90;;;;;;5103771;28;20904;-84
2023/05/12 05:58:36;;;;;;;9.47;6.77;;;14.70;99.90;;;;;;5103590;28;20795;-85
2023/05/12 06:01:04;;;;;;;8.77;7.17;;;14.80;99.90;;;;;;5103759;28;20474;-86
2023/05/12 06:03:31;;;;;;;8.80;6.37;;;14.90;99.90;;;;;;5108258;28;20539;-85
2023/05/12 06:05:59;;;;;;;10.20;7.33;;;15.10;99.90;;;;;;5120348;28;20484;-85
2023/05/12 06:08:25;;;;;;;12.27;7.00;;;14.90;99.90;;;;;;5111889;28;20452;-86
2023/05/12 06:10:52;;;;;;;7.07;6.07;;;15.10;1.00;;;;;;5108889;28;20479;-86
2023/05/12 06:13:19;;;;;;;19.23;7.00;;;15.00;99.90;;;;;;5105291;28;20454;-86
2023/05/12 06:15:46;;;;;;;8.93;6.17;;;15.10;99.90;;;;;;5111824;28;20500;-85
2023/05/12 06:18:15;;;;;;;12.53;6.97;;;15.10;99.90;;;;;;5102365;28;20440;-85
2023/05/12 06:20:42;;;;;;;8.20;7.23;;;15.30;99.90;;;;;;5102266;28;20452;-84
2023/05/12 06:23:08;;;;;;;9.30;6.67;;;15.40;99.90;;;;;;5101750;28;20503;-85
2023/05/12 06:25:35;;;;;;;6.70;5.90;;;15.50;99.90;;;;;;5101129;28;20478;-87
2023/05/12 06:28:02;;;;;;;16.43;7.00;;;15.50;99.90;;;;;;5102200;28;20527;-85
2023/05/12 06:30:29;;;;;;;9.07;5.93;;;15.60;99.90;;;;;;5101855;28;20964;-85
2023/05/12 06:32:56;;;;;;;17.77;6.77;;;15.70;99.90;;;;;;5103228;28;20444;-85
2023/05/12 06:35:24;;;;;;;11.10;6.47;;;15.70;99.90;;;;;;5103218;28;20547;-86
2023/05/12 06:37:51;;;;;;;11.63;5.77;;;15.70;99.90;;;;;;5102981;28;20517;-86
2023/05/12 06:40:18;;;;;;;8.57;6.57;;;15.80;99.90;;;;;;5113721;28;20468;-85
2023/05/12 06:42:45;;;;;;;11.40;5.83;;;15.80;1.00;;;;;;5113538;28;20516;-86
2023/05/12 06:45:12;;;;;;;6.73;5.30;;;15.90;99.90;;;;;;5107667;28;20528;-85
2023/05/12 06:47:39;;;;;;;7.60;5.80;;;16.00;99.90;;;;;;5114865;28;20440;-84
2023/05/12 06:50:07;;;;;;;7.63;6.53;;;16.10;99.90;;;;;;5115619;28;20456;-84
2023/05/12 06:52:36;;;;;;;7.23;6.50;;;16.30;99.90;;;;;;5113908;28;20524;-86
2023/05/12 06:55:04;;;;;;;6.27;5.63;;;16.30;99.90;;;;;;5103525;28;20468;-86
2023/05/12 06:57:31;;;;;;;7.53;5.40;;;16.30;99.90;;;;;;5101295;28;20448;-86
2023/05/12 06:59:59;;;;;;;6.70;6.10;;;16.40;99.90;;;;;;5102726;28;20495;-86
2023/05/12 07:02:26;;;;;;;6.93;5.63;;;16.60;99.90;;;;;;5101488;28;20487;-86
2023/05/12 07:04:53;;;;;;;8.40;5.50;;;16.60;99.90;;;;;;5101014;28;20997;-85
2023/05/12 07:07:19;;;;;;;21.33;7.03;;;16.60;99.90;;;;;;5102039;28;20490;-86
2023/05/12 07:09:48;;;;;;;6.43;5.10;;;16.70;99.90;;;;;;5102966;28;20459;-85
2023/05/12 07:12:15;;;;;;;7.83;5.70;;;16.80;99.90;;;;;;5104071;28;20517;-86
2023/05/12 07:14:41;;;;;;;10.03;5.40;;;17.30;1.00;;;;;;5104519;28;20480;-86
2023/05/12 07:17:08;;;;;;;8.47;5.60;;;17.00;99.90;;;;;;5113988;28;20437;-85
2023/05/12 07:19:35;;;;;;;7.93;5.50;;;17.10;99.90;;;;;;5115223;28;20467;-86
2023/05/12 07:22:07;;;;;;;6.30;5.70;;;17.10;99.90;;;;;;5111988;28;20863;-86
2023/05/12 07:24:34;;;;;;;5.87;5.27;;;17.00;1.00;;;;;;5110518;28;20432;-86
2023/05/12 07:27:02;;;;;;;6.43;5.73;;;17.10;99.90;;;;;;5112500;28;20796;-85
2023/05/12 07:29:29;;;;;;;10.60;6.23;;;17.10;99.90;;;;;;5117807;28;20441;-85
2023/05/12 07:31:56;;;;;;;5.70;5.20;;;17.20;99.90;;;;;;5117888;28;20436;-84
2023/05/12 07:34:23;;;;;;;7.87;5.83;;;18.30;1.00;;;;;;5115666;28;20468;-85
2023/05/12 07:36:50;;;;;;;8.80;6.27;;;17.30;99.90;;;;;;5109811;28;20461;-86
2023/05/12 07:39:22;;;;;;;11.30;6.17;;;17.50;99.90;;;;;;5104163;28;20456;-86
2023/05/12 07:41:49;;;;;;;5.67;5.20;;;17.60;99.90;;;;;;5101174;28;20433;-86
2023/05/12 07:44:17;;;;;;;9.00;5.77;;;17.70;99.90;;;;;;5101023;28;20503;-86
2023/05/12 07:46:45;;;;;;;11.13;5.80;;;17.80;99.90;;;;;;5101562;28;20889;-86
2023/05/12 07:49:12;;;;;;;6.70;4.77;;;17.80;99.90;;;;;;5102937;28;20450;-86
2023/05/12 07:51:47;;;;;;;8.10;5.20;;;17.90;99.90;;;;;;5102196;28;20840;-88
2023/05/12 07:54:14;;;;;;;6.20;5.60;;;;;;;;;;5111912;28;20436;-84
2023/05/12 07:56:41;;;;;;;6.43;5.80;;;;;;;;;;5112131;28;20456;-86
2023/05/12 07:59:09;;;;;;;9.53;5.10;;;18.20;99.90;;;;;;5103786;28;20534;-86
2023/05/12 08:01:38;;;;;;;8.03;4.90;;;18.30;99.90;;;;;;5101520;28;20448;-86
2023/05/12 08:04:05;;;;;;;6.33;5.00;;;18.30;99.90;;;;;;5102153;28;20551;-86
2023/05/12 08:06:32;;;;;;;9.03;4.80;;;18.40;99.90;;;;;;5102326;28;20494;-86
2023/05/12 08:08:59;;;;;;;7.93;5.70;;;18.30;99.90;;;;;;5103121;28;20498;-86
2023/05/12 08:11:26;;;;;;;8.23;5.90;;;18.40;99.90;;;;;;5101724;28;20463;-86
2023/05/12 08:13:53;;;;;;;8.23;6.27;;;18.50;99.90;;;;;;5102370;28;20445;-86
2023/05/12 08:16:20;;;;;;;11.80;5.20;;;18.70;99.90;;;;;;5105992;28;20499;-86
2023/05/12 08:18:48;;;;;;;10.83;6.57;;;18.70;99.90;;;;;;5107548;28;20493;-86
2023/05/12 08:21:15;;;;;;;5.70;4.37;;;18.80;99.90;;;;;;5109272;28;20508;-86
2023/05/12 08:23:43;;;;;;;7.40;4.70;;;18.90;99.90;;;;;;5100907;28;20495;-86
2023/05/12 08:26:10;;;;;;;7.77;5.80;;;19.00;99.90;;;;;;5100608;28;20467;-86
2023/05/12 08:28:37;;;;;;;5.10;4.37;;;19.10;99.90;;;;;;5102135;28;20535;-85
2023/05/12 08:31:04;;;;;;;16.23;5.27;;;19.20;99.90;;;;;;5102443;28;20472;-86
2023/05/12 08:33:31;;;;;;;8.40;5.47;;;18.90;1.00;;;;;;5103840;28;20447;-86
2023/05/12 08:36:00;;;;;;;4.00;3.60;;;19.50;99.90;;;;;;5110649;28;20496;-85
2023/05/12 08:38:27;;;;;;;9.60;5.53;;;19.20;99.90;;;;;;5105959;28;20445;-86
2023/05/12 08:41:14;;;;;;;4.53;4.13;;;19.30;99.90;;;;;;5105331;28;20448;-86
2023/05/12 08:43:43;;;;;;;4.47;4.07;;;19.40;99.90;;;;;;5115090;28;20505;-85
2023/05/12 08:46:12;;;;;;;6.30;4.60;;;19.40;99.90;;;;;;5107144;28;20467;-86
2023/05/12 08:48:41;;;;;;;5.37;4.87;;;19.50;99.90;;;;;;5101721;28;20448;-85
2023/05/12 08:51:11;;;;;;;7.20;4.57;;;19.50;99.90;;;;;;5101489;28;20881;-86
2023/05/12 08:53:40;;;;;;;7.37;5.10;;;19.70;99.90;;;;;;5105387;28;20490;-85
2023/05/12 08:56:09;;;;;;;6.00;4.20;;;19.70;99.90;;;;;;5103975;28;20500;-86
2023/05/12 08:58:37;;;;;;;11.43;4.70;;;19.60;99.90;;;;;;5104257;28;20448;-86
2023/05/12 09:01:05;;;;;;;6.43;4.67;;;19.60;99.90;;;;;;5104325;28;20452;-86
2023/05/12 09:03:33;;;;;;;5.03;4.27;;;19.70;99.90;;;;;;5106194;28;20567;-85
2023/05/12 09:06:01;;;;;;;4.93;4.30;;;19.50;99.90;;;;;;5120267;28;20459;-85
2023/05/12 09:08:31;;;;;;;8.33;4.77;;;19.60;99.90;;;;;;5120474;28;20432;-85
2023/05/12 09:10:59;;;;;;;6.90;4.80;;;19.60;99.90;;;;;;5120803;28;20812;-84
2023/05/12 09:13:31;;;;;;;5.90;4.20;;;19.70;99.90;;;;;;5120965;28;20452;-85
2023/05/12 09:16:00;;;;;;;9.00;4.17;;;19.80;99.90;;;;;;5131061;22;20541;-82
2023/05/12 09:18:40;;;;;;;6.20;4.80;;;19.80;99.90;;;;;;5114271;28;20523;-83
2023/05/12 09:21:07;;;;;;;8.90;4.60;;;19.80;99.90;;;;;;5105167;28;20507;-83
2023/05/12 09:23:35;;;;;;;7.53;4.13;;;19.90;99.90;;;;;;5103164;28;20515;-83
2023/05/12 09:26:02;;;;;;;6.73;5.10;;;19.90;99.90;;;;;;5103654;28;20547;-83
2023/05/12 09:28:37;;;;;;;4.90;4.03;;;19.80;99.90;;;;;;5115974;28;20442;-82
2023/05/12 09:31:15;;;;;;;4.33;4.03;;;19.80;99.90;;;;;;5114602;28;20458;-83
2023/05/12 09:33:41;;;;;;;6.80;4.13;;;19.80;99.90;;;;;;5106672;28;20440;-83
2023/05/12 09:36:08;;;;;;;8.40;5.60;;;19.90;99.90;;;;;;5107828;28;20474;-83
2023/05/12 09:38:37;;;;;;;5.60;4.90;;;20.00;99.90;;;;;;5109110;28;20512;-84
2023/05/12 09:41:04;;;;;;;7.03;4.77;;;20.00;99.90;;;;;;5106881;28;20446;-83
2023/05/12 09:43:30;;;;;;;7.03;4.63;;;20.50;99.90;;;;;;5105091;28;20913;-84
2023/05/12 09:45:57;;;;;;;4.87;4.40;;;20.00;99.90;;;;;;5103537;28;20468;-84
2023/05/12 09:48:24;;;;;;;5.70;3.53;;;20.10;99.90;;;;;;5112482;28;20427;-83
2023/05/12 09:50:52;;;;;;;4.23;3.93;;;20.00;99.90;;;;;;5104992;28;21002;-83
2023/05/12 09:53:21;;;;;;;8.70;4.00;;;20.00;99.90;;;;;;5101394;28;20518;-82
2023/05/12 09:55:50;;;;;;;9.63;3.90;;;20.10;99.90;;;;;;5105538;28;20507;-83
2023/05/12 09:58:18;;;;;;;7.07;3.90;;;20.10;99.90;;;;;;5108384;28;20437;-83
2023/05/12 10:00:46;;;;;;;6.03;4.50;;;20.10;99.90;;;;;;5111441;28;20495;-82
2023/05/12 10:03:15;;;;;;;6.03;3.97;;;20.20;99.90;;;;;;5112724;28;20468;-83
2023/05/12 10:05:48;;;;;;;8.53;4.43;;;20.30;99.90;;;;;;5104142;28;20993;-83
2023/05/12 10:08:21;;;;;;;5.67;4.40;;;20.40;99.90;;;;;;5103354;28;20429;-84
2023/05/12 10:10:51;;;;;;;5.90;4.10;;;20.50;99.90;;;;;;5113506;28;20440;-84
2023/05/12 10:13:19;;;;;;;4.83;3.77;;;20.60;99.90;;;;;;5115105;28;20425;-83
2023/05/12 10:15:48;;;;;;;7.50;4.13;;;20.50;99.90;;;;;;5108137;28;20508;-83
2023/05/12 10:18:16;;;;;;;8.73;5.10;;;20.70;99.90;;;;;;5106264;28;20508;-83
2023/05/12 10:20:45;;;;;;;5.23;3.83;;;20.80;99.90;;;;;;5107357;28;20452;-82
2023/05/12 10:23:13;;;;;;;4.50;3.30;;;20.80;99.90;;;;;;5105620;28;20449;-82
2023/05/12 10:25:41;;;;;;;4.50;4.10;;;20.80;99.90;;;;;;5105922;28;20466;-82
2023/05/12 10:28:10;;;;;;;5.17;4.17;;;20.80;99.90;;;;;;5108865;28;20476;-84
2023/05/12 10:30:38;;;;;;;6.60;3.93;;;20.90;99.90;;;;;;5106038;28;20452;-84
2023/05/12 10:33:07;;;;;;;8.10;7.33;;;20.60;99.90;;;;;;5103886;28;20441;-84
2023/05/12 10:35:34;;;;;;;5.10;4.60;;;20.90;99.90;;;;;;5103455;28;20475;-83
2023/05/12 10:38:03;;;;;;;8.17;4.57;;;20.90;99.90;;;;;;5102623;28;20455;-84
2023/05/12 10:40:30;;;;;;;6.50;5.07;;;21.10;99.90;;;;;;5102130;28;20444;-84
2023/05/12 10:43:00;;;;;;;4.50;4.10;;;21.20;99.90;;;;;;5101344;28;20512;-84
2023/05/12 10:45:28;;;;;;;7.10;4.90;;;21.30;99.90;;;;;;5102905;28;20485;-84
2023/05/12 10:48:05;;;;;;;5.33;4.30;;;21.30;99.90;;;;;;5102092;28;20534;-83
2023/05/12 10:50:32;;;;;;;11.50;4.33;;;21.70;99.90;;;;;;5107067;28;20435;-82
2023/05/12 10:52:59;;;;;;;4.67;4.27;;;21.20;1.00;;;;;;5114018;28;20447;-82
2023/05/12 10:55:34;;;;;;;6.13;5.20;;;21.40;99.90;;;;;;5107483;28;20452;-84
2023/05/12 10:58:08;;;;;;;6.17;4.93;;;21.50;99.90;;;;;;5103073;28;20451;-82
2023/05/12 11:00:45;;;;;;;4.63;4.23;;;21.00;1.00;;;;;;5101756;28;20933;-84
2023/05/12 11:03:15;;;;;;;12.83;5.20;;;21.40;99.90;;;;;;5100776;28;20435;-84
2023/05/12 11:05:42;;;;;;;5.70;4.47;;;21.50;99.90;;;;;;5100012;28;20563;-84
2023/05/12 11:08:09;;;;;;;5.73;5.13;;;21.40;99.90;;;;;;5101453;28;20450;-85
2023/05/12 11:10:36;;;;;;;6.43;5.40;;;21.40;99.90;;;;;;5101085;28;20484;-84
2023/05/12 11:13:03;;;;;;;6.80;5.93;;;21.40;99.90;;;;;;5102387;28;20973;-84
2023/05/12 11:15:30;;;;;;;4.87;4.47;;;21.20;99.90;;;;;;5117228;28;20464;-80
2023/05/12 11:18:02;;;;;;;4.77;4.10;;;21.30;99.90;;;;;;5119211;28;20491;-79
2023/05/12 11:20:29;;;;;;;4.60;4.13;;;21.30;99.90;;;;;;5119303;28;20421;-81
2023/05/12 11:22:56;;;;;;;6.90;4.63;;;21.20;99.90;;;;;;5110653;28;20477;-82
2023/05/12 11:25:26;;;;;;;6.40;3.67;;;21.20;99.90;;;;;;5101268;28;20494;-83
2023/05/12 11:27:52;;;;;;;5.50;3.50;;;21.30;99.90;;;;;;5115387;28;20468;-81
2023/05/12 11:30:20;;;;;;;5.17;4.67;;;21.20;99.90;;;;;;5116662;28;20476;-83
2023/05/12 11:32:47;;;;;;;4.90;3.83;;;21.10;99.90;;;;;;5113041;28;20458;-84
2023/05/12 11:35:18;;;;;;;6.03;3.97;;;21.20;99.90;;;;;;5108796;28;20460;-83
2023/05/12 11:37:46;;;;;;;4.10;3.67;;;21.30;99.90;;;;;;5102327;28;20429;-84
2023/05/12 11:40:17;;;;;;;5.93;4.00;;;21.30;99.90;;;;;;5103317;28;20448;-84
2023/05/12 11:42:47;;;;;;;3.53;3.30;;;21.30;99.90;;;;;;5116014;28;20432;-82
2023/05/12 11:45:21;;;;;;;7.03;3.90;;;21.30;99.90;;;;;;5115068;28;20475;-83
2023/05/12 11:47:48;;;;;;;5.50;3.67;;;21.20;99.90;;;;;;5105667;28;20495;-83
2023/05/12 11:50:26;;;;;;;3.77;3.47;;;21.00;99.90;;;;;;5103314;28;20942;-84
2023/05/12 11:52:54;;;;;;;4.93;3.23;;;;;;;;;;5102294;28;20409;-84
2023/05/12 11:55:24;;;;;;;3.93;3.50;;;21.40;99.90;;;;;;5104830;28;20476;-84
2023/05/12 11:58:01;;;;;;;11.53;3.83;;;21.50;1.00;;;;;;5100229;28;20447;-83
2023/05/12 12:00:31;;;;;;;4.93;3.10;;;21.50;99.90;;;;;;5100259;28;20448;-83
2023/05/12 12:03:08;;;;;;;4.03;3.73;;;21.40;99.90;;;;;;5100242;28;20447;-83
2023/05/12 12:05:37;;;;;;;4.37;3.30;;;21.40;99.90;;;;;;5100358;28;20488;-83
2023/05/12 12:08:06;;;;;;;4.40;3.90;;;21.50;99.90;;;;;;5102631;28;20452;-83
2023/05/12 12:10:33;;;;;;;4.83;3.80;;;21.50;99.90;;;;;;5104656;28;20448;-83
2023/05/12 12:13:00;;;;;;;4.17;3.73;;;21.50;99.90;;;;;;5103391;28;20503;-83
2023/05/12 12:15:27;;;;;;;3.43;2.80;;;21.50;99.90;;;;;;5099649;28;20476;-83
2023/05/12 12:17:56;;;;;;;3.87;3.53;;;21.60;99.90;;;;;;5102505;28;20445;-84
2023/05/12 12:20:23;;;;;;;5.53;3.90;;;21.70;99.90;;;;;;5105031;28;20531;-83
2023/05/12 12:22:52;;;;;;;8.67;4.40;;;21.70;99.90;;;;;;5101795;28;20451;-82
2023/05/12 12:25:19;;;;;;;4.90;3.23;;;21.60;99.90;;;;;;5099451;28;20483;-83
2023/05/12 12:27:47;;;;;;;7.30;3.90;;;21.60;99.90;;;;;;5103651;28;20457;-83
2023/05/12 12:30:15;;;;;;;4.00;3.60;;;21.60;99.90;;;;;;5105527;28;20512;-83
2023/05/12 12:32:42;;;;;;;7.43;6.13;;;21.60;99.90;;;;;;5105280;28;20458;-83
2023/05/12 12:35:10;;;;;;;8.77;4.23;;;21.20;1.00;;;;;;5116078;28;20451;-83
2023/05/12 12:37:37;;;;;;;5.60;4.90;;;21.40;99.90;;;;;;5118839;28;20478;-83
2023/05/12 12:40:08;;;;;;;9.40;5.07;;;21.10;1.00;;;;;;5118193;28;20559;-85
2023/05/12 12:42:36;;;;;;;7.97;7.17;;;21.40;99.90;;;;;;5110362;28;20424;-83
2023/05/12 12:45:04;;;;;;;11.23;7.30;;;21.90;99.90;;;;;;5103879;28;20574;-83
2023/05/12 12:47:31;;;;;;;4.30;3.90;;;21.50;99.90;;;;;;5104441;28;20448;-82
2023/05/12 12:49:58;;;;;;;7.20;4.10;;;21.60;99.90;;;;;;5105494;28;20447;-83
2023/05/12 12:52:25;;;;;;;4.17;3.87;;;21.70;99.90;;;;;;5104849;28;20451;-83